Bookmark and Share
Track history (hours):
 

Atlantic Island

Last reported at 2014-Apr-19 18:25 UTC. Time now 2014-Apr-20 11:41 UTC.
Position N 36°54' W 001°41'.

Length 95 m; draft 3.8 m.

Type: Cargo ship. MMSI: 210754000.

NotesDate/timePositionNaut miles runAvg speedWind from/ knotsBaromVisibWave heightAir tempDewpointWater temp
2014-Apr-19 18:25N 36°54' W 001°41'  
2014-Apr-16 21:33N 35°59' W 005°10'1414.0
2014-Apr-16 20:33N 35°57' W 005°27'1813.6
2014-Apr-16 19:15N 35°55' W 005°49'196 9.4
2014-Apr-15 22:23N 37°28' W 009°23'911.2
2014-Apr-15 21:33N 37°37' W 009°20'1111.1
2014-Apr-15 20:33N 37°48' W 009°15'1110.8
2014-Apr-15 19:33N 37°58' W 009°12'1110.8
2014-Apr-15 18:33N 38°08' W 009°06'1110.8
2014-Apr-15 17:33N 38°18' W 009°02'1110.5
2014-Apr-15 16:33N 38°28' W 008°57'5 5.3
2014-Apr-15 15:33N 38°30' W 008°51'0 0.0
2014-Apr-15 10:33N 38°30' W 008°51'0 0.0
2014-Apr-15 09:33N 38°30' W 008°51'0 0.0
2014-Apr-15 08:33N 38°30' W 008°51'0 0.0
2014-Apr-15 07:33N 38°30' W 008°51'0 0.0
2014-Apr-14 23:33N 38°30' W 008°51'0 0.0
2014-Apr-14 20:33N 38°30' W 008°51'0 0.0
2014-Apr-14 19:30N 38°30' W 008°51'0 0.0
2014-Apr-14 18:33N 38°30' W 008°51'2 0.9
2014-Apr-14 16:33N 38°31' W 008°53'1 0.1
2014-Apr-14 11:30N 38°31' W 008°53'3 1.0
2014-Apr-14 08:33N 38°29' W 008°56'4 4.3
2014-Apr-14 07:33N 38°25' W 008°59'6 6.2
2014-Apr-14 06:33N 38°19' W 009°01'1 1.0
2014-Apr-14 05:33N 38°19' W 009°02'63 8.8
2014-Apr-13 22:26N 37°16' W 009°11'5 5.8
2014-Apr-13 21:32N 37°14' W 009°17'25 8.3
2014-Apr-13 18:33N 36°49' W 009°14'9 8.6
2014-Apr-13 17:33N 36°44' W 009°06'8 7.7
2014-Apr-13 16:33N 36°38' W 008°60'1110.0
2014-Apr-13 15:28N 36°27' W 008°59'  

Dump ship's entire track history

sailing weather and tide predictions

Atlantic Island — C4VM2 — position and weather